createdAt,value
2023-05-01T00:12:01.541Z,0.86
2023-05-01T00:17:11.303Z,0.89
2023-05-01T00:22:28.817Z,0.86
2023-05-01T00:27:44.213Z,0.85
2023-05-01T00:33:02.382Z,0.85
2023-05-01T00:38:18.879Z,0.93
2023-05-01T00:43:34.759Z,0.9
2023-05-01T00:48:50.178Z,0.88
2023-05-01T00:54:07.590Z,0.89
2023-05-01T00:59:25.192Z,0.96
2023-05-01T01:04:41.418Z,0.89
2023-05-01T01:09:59.043Z,0.87
2023-05-01T01:15:14.149Z,0.94
2023-05-01T01:20:33.304Z,0.83
2023-05-01T01:25:50.788Z,1.04
2023-05-01T01:31:07.282Z,1
2023-05-01T01:36:23.667Z,0.86
2023-05-01T01:41:40.951Z,1.09
2023-05-01T01:46:56.935Z,0.92
2023-05-01T01:52:13.393Z,0.89
2023-05-01T01:57:30.464Z,0.96
2023-05-01T02:02:46.440Z,1.1
2023-05-01T02:08:02.252Z,0.96
2023-05-01T02:13:17.609Z,0.99
2023-05-01T02:18:35.793Z,0.92
2023-05-01T02:23:52.153Z,1.27
2023-05-01T02:29:09.027Z,1.17
2023-05-01T02:34:24.993Z,0.84
2023-05-01T02:39:40.611Z,0.82
2023-05-01T02:44:59.661Z,0.88
2023-05-01T02:50:16.636Z,0.94
2023-05-01T02:55:34.291Z,0.72
2023-05-01T03:00:51.676Z,0.77
2023-05-01T03:06:07.703Z,0.83
2023-05-01T03:11:23.183Z,0.79
2023-05-01T03:15:38.215Z,0.78
2023-05-01T03:20:55.401Z,0.85
2023-05-01T03:26:12.067Z,0.76
2023-05-01T03:31:29.306Z,0.76
2023-05-01T03:36:45.676Z,0.89
2023-05-01T03:42:02.886Z,0.9
2023-05-01T03:47:19.909Z,0.91
2023-05-01T03:52:35.644Z,0.8
2023-05-01T03:57:53.537Z,1.05
2023-05-01T04:50:52.429Z,0.85
2023-05-01T04:56:01.836Z,1.01
2023-05-01T05:01:18.810Z,0.77
2023-05-01T05:06:35.037Z,0.8
2023-05-01T05:11:51.268Z,1.02
2023-05-01T05:17:08.190Z,1.1
2023-05-01T05:22:24.646Z,0.84
2023-05-01T05:27:39.849Z,0.91
2023-05-01T05:32:56.261Z,0.97
2023-05-01T05:38:12.562Z,0.81
2023-05-01T05:43:28.542Z,0.9
2023-05-01T05:48:44.147Z,1.09
2023-05-01T05:53:59.994Z,0.99
2023-05-01T05:59:18.288Z,0.93
2023-05-01T06:04:35.219Z,0.87
2023-05-01T06:09:50.820Z,0.95
2023-05-01T06:15:06.369Z,0.94
2023-05-01T06:20:22.876Z,0.9
2023-05-01T06:25:39.855Z,0.95
2023-05-01T06:30:55.617Z,0.91
2023-05-01T06:36:11.711Z,0.93
2023-05-01T06:41:27.983Z,1.08
2023-05-01T06:46:45.454Z,1.05
2023-05-01T06:52:00.852Z,1.01
2023-05-01T06:57:19.369Z,1
2023-05-01T07:02:35.933Z,0.99
2023-05-01T07:08:02.330Z,1.12
2023-05-01T07:13:10.001Z,1.07
2023-05-01T07:18:26.558Z,1.12
2023-05-01T07:23:42.718Z,1.16
2023-05-01T07:28:58.463Z,0.98
2023-05-01T07:34:14.391Z,1.05
2023-05-01T07:39:31.182Z,0.97
2023-05-01T07:44:48.213Z,0.92
2023-05-01T07:50:03.433Z,1.01
2023-05-01T07:55:21.760Z,0.94
2023-05-01T08:37:39.427Z,0.98
2023-05-01T08:42:49.231Z,0.91
2023-05-01T08:48:05.634Z,0.87
2023-05-01T08:53:21.017Z,0.83
2023-05-01T08:58:37.639Z,0.88
2023-05-01T09:03:56.097Z,0.87
2023-05-01T09:09:13.569Z,0.84
2023-05-01T09:14:29.563Z,0.87
2023-05-01T09:19:45.755Z,0.81
2023-05-01T09:25:01.697Z,0.87
2023-05-01T09:30:18.902Z,0.8
2023-05-01T09:35:35.421Z,0.87
2023-05-01T09:40:51.065Z,0.86
2023-05-01T09:46:08.263Z,0.82
2023-05-01T09:51:25.346Z,0.86
2023-05-01T09:56:41.736Z,0.83
2023-05-01T10:01:58.355Z,0.82
2023-05-01T10:07:13.534Z,0.79
2023-05-01T10:12:29.665Z,0.84
2023-05-01T10:17:46.156Z,0.8
2023-05-01T10:23:00.719Z,0.83
2023-05-01T10:28:17.020Z,0.77
2023-05-01T10:33:32.828Z,0.74
2023-05-01T10:38:48.663Z,0.75
2023-05-01T10:44:04.420Z,0.73
2023-05-01T10:49:22.333Z,0.75
2023-05-01T10:54:39.548Z,0.73
2023-05-01T10:59:56.383Z,0.77
2023-05-01T11:05:12.112Z,0.74
2023-05-01T11:10:27.987Z,0.72
2023-05-01T11:15:45.402Z,0.76
2023-05-01T11:21:00.169Z,0.74
2023-05-01T11:26:17.314Z,0.75
2023-05-01T11:31:34.108Z,0.78
2023-05-01T11:36:49.988Z,0.76
2023-05-01T11:42:06.084Z,0.81
2023-05-01T11:47:23.411Z,0.78
2023-05-01T12:24:18.306Z,0.79
2023-05-01T12:29:34.347Z,0.75
2023-05-01T13:06:41.173Z,0.7
2023-05-01T13:11:50.941Z,0.75
2023-05-01T13:17:10.025Z,0.78
2023-05-01T13:22:24.022Z,0.75
2023-05-01T13:27:40.363Z,0.76
2023-05-01T13:32:58.649Z,0.73
2023-05-01T13:38:15.427Z,0.75
2023-05-01T13:43:33.749Z,0.76
2023-05-01T13:48:51.199Z,0.77
2023-05-01T13:54:07.008Z,0.76
2023-05-01T13:59:23.730Z,0.77
2023-05-01T14:04:40.652Z,0.81
2023-05-01T14:09:57.456Z,0.72
2023-05-01T14:15:14.377Z,0.73
2023-05-01T14:20:30.125Z,0.78
2023-05-01T14:25:45.815Z,0.74
2023-05-01T14:31:01.732Z,0.76
2023-05-01T14:36:17.424Z,0.72
2023-05-01T14:41:35.395Z,0.75
2023-05-01T14:46:53.172Z,0.72
2023-05-01T14:52:09.642Z,0.8
2023-05-01T14:57:23.425Z,0.77
2023-05-01T15:02:39.790Z,0.82
2023-05-01T15:07:55.688Z,0.81
2023-05-01T15:13:11.876Z,0.79
2023-05-01T15:18:27.856Z,0.78
2023-05-01T15:23:43.980Z,0.76
2023-05-01T15:29:03.037Z,0.94
2023-05-01T15:34:19.049Z,0.96
2023-05-01T15:39:36.316Z,0.89
2023-05-01T15:44:53.729Z,0.81
2023-05-01T15:50:10.852Z,0.84
2023-05-01T15:55:26.970Z,0.82
2023-05-01T16:00:44.475Z,0.84
2023-05-01T16:06:00.589Z,0.8
2023-05-01T16:11:16.133Z,0.79
2023-05-01T16:58:49.847Z,0.69
2023-05-01T17:03:59.975Z,0.68
2023-05-01T17:09:15.744Z,0.79
2023-05-01T17:14:32.447Z,0.85
2023-05-01T17:19:49.842Z,0.84
2023-05-01T17:25:06.808Z,0.9
2023-05-01T17:30:22.310Z,0.92
2023-05-01T17:35:41.367Z,0.82
2023-05-01T17:40:58.382Z,0.83
2023-05-01T17:46:14.627Z,1.02
2023-05-01T17:51:29.747Z,0.99
2023-05-01T17:56:46.362Z,0.92
2023-05-01T18:02:04.794Z,0.9
2023-05-01T18:07:19.921Z,1.09
2023-05-01T18:12:36.072Z,1.02
2023-05-01T18:17:53.272Z,1.01
2023-05-01T18:23:09.716Z,1
2023-05-01T18:28:27.236Z,1.03
2023-05-01T18:33:44.010Z,1.12
2023-05-01T18:38:59.291Z,1.04
2023-05-01T18:44:15.597Z,1.02
2023-05-01T18:49:32.832Z,1
2023-05-01T18:54:48.559Z,0.99
2023-05-01T19:00:06.762Z,0.97
2023-05-01T19:05:23.226Z,1.05
2023-05-01T19:10:39.787Z,1.05
2023-05-01T19:15:56.686Z,1
2023-05-01T19:21:14.446Z,1.04
2023-05-01T19:26:31.663Z,0.93
2023-05-01T19:31:48.848Z,0.94
2023-05-01T19:37:05.332Z,0.96
2023-05-01T19:42:21.415Z,0.93
2023-05-01T19:47:38.978Z,0.98
2023-05-01T19:52:55.288Z,1
2023-05-01T20:35:16.102Z,1.14
2023-05-01T20:40:25.762Z,1.14
2023-05-01T20:45:41.360Z,1.2
2023-05-01T20:50:56.476Z,1.2
2023-05-01T20:56:16.914Z,1.37
2023-05-01T21:01:34.532Z,1.3
2023-05-01T21:06:52.207Z,1.53
2023-05-01T21:12:08.209Z,1.25
2023-05-01T21:17:24.521Z,1.24
2023-05-01T21:22:41.479Z,1.21
2023-05-01T21:27:59.251Z,1.18
2023-05-01T21:33:15.693Z,1.25
2023-05-01T21:38:31.716Z,1.16
2023-05-01T21:43:47.875Z,1.16
2023-05-01T21:49:03.558Z,1.26
2023-05-01T21:54:21.950Z,1.27
2023-05-01T21:59:37.968Z,1.26
2023-05-01T22:04:54.738Z,1.19
2023-05-01T22:10:11.460Z,1.23
2023-05-01T22:15:27.370Z,1.27
2023-05-01T22:20:43.133Z,1.28
2023-05-01T22:26:02.567Z,1.52
2023-05-01T22:31:19.290Z,1.37
2023-05-01T22:36:34.807Z,1.54
2023-05-01T22:41:52.449Z,1.41
2023-05-01T22:47:09.041Z,1.37
2023-05-01T22:52:24.346Z,1.45
2023-05-01T22:57:40.942Z,1.85
2023-05-01T23:02:57.608Z,1.39
2023-05-01T23:08:12.290Z,1.74
2023-05-01T23:13:29.897Z,1.51
2023-05-01T23:18:47.032Z,1.47
2023-05-01T23:24:05.119Z,1.61
2023-05-01T23:29:21.589Z,1.61
2023-05-01T23:34:38.158Z,1.88
